sensor_id;sensor_type;location;lat;lon;timestamp;pressure;altitude;pressure_sealevel;temperature;humidity
35577;BME280;21680;52.400;16.920;2022-07-23T00:03:21;100816.15;;;21.45;57.20
35577;BME280;21680;52.400;16.920;2022-07-23T00:05:47;100813.95;;;21.39;57.16
35577;BME280;21680;52.400;16.920;2022-07-23T00:08:13;100816.67;;;21.39;57.24
35577;BME280;21680;52.400;16.920;2022-07-23T00:10:39;100814.95;;;21.38;57.31
35577;BME280;21680;52.400;16.920;2022-07-23T00:13:04;100818.30;;;21.36;57.38
35577;BME280;21680;52.400;16.920;2022-07-23T00:15:30;100817.44;;;21.35;57.42
35577;BME280;21680;52.400;16.920;2022-07-23T00:17:56;100819.06;;;21.32;57.49
35577;BME280;21680;52.400;16.920;2022-07-23T00:20:22;100823.28;;;21.31;57.57
35577;BME280;21680;52.400;16.920;2022-07-23T00:22:50;100814.38;;;21.29;57.65
35577;BME280;21680;52.400;16.920;2022-07-23T00:25:18;100809.78;;;21.29;57.71
35577;BME280;21680;52.400;16.920;2022-07-23T00:27:44;100811.64;;;21.29;57.74
35577;BME280;21680;52.400;16.920;2022-07-23T00:30:11;100816.00;;;21.26;57.77
35577;BME280;21680;52.400;16.920;2022-07-23T00:32:53;100820.34;;;21.23;57.89
35577;BME280;21680;52.400;16.920;2022-07-23T00:35:25;100811.90;;;21.20;57.98
35577;BME280;21680;52.400;16.920;2022-07-23T00:37:52;100810.80;;;21.17;58.05
35577;BME280;21680;52.400;16.920;2022-07-23T00:40:19;100792.15;;;21.01;57.95
35577;BME280;21680;52.400;16.920;2022-07-23T00:42:46;100792.15;;;21.01;57.95
35577;BME280;21680;52.400;16.920;2022-07-23T00:45:13;100810.45;;;21.11;58.30
35577;BME280;21680;52.400;16.920;2022-07-23T00:47:38;100801.91;;;21.10;58.38
35577;BME280;21680;52.400;16.920;2022-07-23T00:50:06;100812.56;;;21.07;58.40
35577;BME280;21680;52.400;16.920;2022-07-23T00:52:35;100814.43;;;21.06;58.52
35577;BME280;21680;52.400;16.920;2022-07-23T00:55:01;100810.97;;;21.04;58.59
35577;BME280;21680;52.400;16.920;2022-07-23T00:57:28;100812.46;;;21.03;58.69
35577;BME280;21680;52.400;16.920;2022-07-23T00:59:54;100809.75;;;20.97;58.79
35577;BME280;21680;52.400;16.920;2022-07-23T01:02:20;100802.94;;;20.97;58.90
35577;BME280;21680;52.400;16.920;2022-07-23T01:04:50;100799.84;;;20.96;58.95
35577;BME280;21680;52.400;16.920;2022-07-23T01:07:20;100794.66;;;20.93;59.08
35577;BME280;21680;52.400;16.920;2022-07-23T01:09:47;100798.01;;;20.91;59.16
35577;BME280;21680;52.400;16.920;2022-07-23T01:12:13;100800.98;;;20.88;59.24
35577;BME280;21680;52.400;16.920;2022-07-23T01:14:39;100801.25;;;20.85;59.38
35577;BME280;21680;52.400;16.920;2022-07-23T01:17:05;100795.92;;;20.84;59.44
35577;BME280;21680;52.400;16.920;2022-07-23T01:19:30;100791.60;;;20.81;59.49
35577;BME280;21680;52.400;16.920;2022-07-23T01:21:58;100787.30;;;20.79;59.65
35577;BME280;21680;52.400;16.920;2022-07-23T01:24:27;100790.53;;;20.78;59.71
35577;BME280;21680;52.400;16.920;2022-07-23T01:26:53;100793.88;;;20.76;59.72
35577;BME280;21680;52.400;16.920;2022-07-23T01:29:19;100791.53;;;20.71;59.84
35577;BME280;21680;52.400;16.920;2022-07-23T01:31:47;100792.03;;;20.71;59.90
35577;BME280;21680;52.400;16.920;2022-07-23T01:34:13;100789.56;;;20.68;59.96
35577;BME280;21680;52.400;16.920;2022-07-23T01:36:40;100786.73;;;20.64;60.07
35577;BME280;21680;52.400;16.920;2022-07-23T01:39:06;100784.62;;;20.62;60.13
35577;BME280;21680;52.400;16.920;2022-07-23T01:41:34;100780.67;;;20.60;60.20
35577;BME280;21680;52.400;16.920;2022-07-23T01:44:00;100781.79;;;20.58;60.26
35577;BME280;21680;52.400;16.920;2022-07-23T01:46:26;100778.70;;;20.57;60.36
35577;BME280;21680;52.400;16.920;2022-07-23T01:48:55;100771.52;;;20.56;60.34
35577;BME280;21680;52.400;16.920;2022-07-23T01:51:21;100769.05;;;20.53;60.48
35577;BME280;21680;52.400;16.920;2022-07-23T01:53:47;100763.11;;;20.53;60.53
35577;BME280;21680;52.400;16.920;2022-07-23T01:56:12;100761.88;;;20.52;60.56
35577;BME280;21680;52.400;16.920;2022-07-23T01:58:40;100766.95;;;20.51;60.64
35577;BME280;21680;52.400;16.920;2022-07-23T02:01:06;100775.13;;;20.51;60.71
35577;BME280;21680;52.400;16.920;2022-07-23T02:03:34;100769.80;;;20.49;60.73
35577;BME280;21680;52.400;16.920;2022-07-23T02:06:00;100766.09;;;20.45;60.78
35577;BME280;21680;52.400;16.920;2022-07-23T02:08:26;100771.05;;;20.39;60.93
35577;BME280;21680;52.400;16.920;2022-07-23T02:10:51;100770.69;;;20.38;61.04
35577;BME280;21680;52.400;16.920;2022-07-23T02:13:17;100769.41;;;20.37;61.15
35577;BME280;21680;52.400;16.920;2022-07-23T02:15:45;100771.03;;;20.34;61.20
35577;BME280;21680;52.400;16.920;2022-07-23T02:18:12;100765.34;;;20.31;61.26
35577;BME280;21680;52.400;16.920;2022-07-23T02:20:38;100781.92;;;20.28;61.42
35577;BME280;21680;52.400;16.920;2022-07-23T02:23:04;100778.95;;;20.26;61.52
35577;BME280;21680;52.400;16.920;2022-07-23T02:25:33;100782.80;;;20.23;61.63
35577;BME280;21680;52.400;16.920;2022-07-23T02:27:59;100791.45;;;20.23;61.77
35577;BME280;21680;52.400;16.920;2022-07-23T02:30:25;100784.65;;;20.23;61.85
35577;BME280;21680;52.400;16.920;2022-07-23T02:32:51;100782.80;;;20.23;61.95
35577;BME280;21680;52.400;16.920;2022-07-23T02:35:17;100777.84;;;20.23;62.02
35577;BME280;21680;52.400;16.920;2022-07-23T02:37:43;100777.84;;;20.23;62.10
35577;BME280;21680;52.400;16.920;2022-07-23T02:40:10;100773.77;;;20.23;62.24
35577;BME280;21680;52.400;16.920;2022-07-23T02:42:37;100775.86;;;20.25;62.32
35577;BME280;21680;52.400;16.920;2022-07-23T02:45:03;100775.13;;;20.28;62.37
35577;BME280;21680;52.400;16.920;2022-07-23T02:47:29;100759.28;;;20.28;62.33
35577;BME280;21680;52.400;16.920;2022-07-23T02:49:57;100755.33;;;20.26;62.44
35577;BME280;21680;52.400;16.920;2022-07-23T02:52:24;100751.12;;;20.28;62.48
35577;BME280;21680;52.400;16.920;2022-07-23T02:54:50;100745.80;;;20.26;62.49
35577;BME280;21680;52.400;16.920;2022-07-23T02:57:16;100744.32;;;20.22;62.50
35577;BME280;21680;52.400;16.920;2022-07-23T02:59:42;100750.02;;;20.19;62.57
35577;BME280;21680;52.400;16.920;2022-07-23T03:02:08;100749.27;;;20.17;62.68
35577;BME280;21680;52.400;16.920;2022-07-23T03:04:34;100749.40;;;20.16;62.66
35577;BME280;21680;52.400;16.920;2022-07-23T03:07:00;100762.77;;;20.13;62.71
35577;BME280;21680;52.400;16.920;2022-07-23T03:09:25;100763.38;;;20.11;62.79
35577;BME280;21680;52.400;16.920;2022-07-23T03:11:51;100763.01;;;20.10;62.85
35577;BME280;21680;52.400;16.920;2022-07-23T03:14:17;100756.20;;;20.10;62.87
35577;BME280;21680;52.400;16.920;2022-07-23T03:16:43;100752.13;;;20.10;62.92
35577;BME280;21680;52.400;16.920;2022-07-23T03:19:09;100760.41;;;20.08;62.91
35577;BME280;21680;52.400;16.920;2022-07-23T03:21:35;100767.59;;;20.09;63.03
35577;BME280;21680;52.400;16.920;2022-07-23T03:24:03;100764.00;;;20.09;63.04
35577;BME280;21680;52.400;16.920;2022-07-23T03:26:29;100764.87;;;20.09;63.07
35577;BME280;21680;52.400;16.920;2022-07-23T03:28:55;100770.43;;;20.08;63.08
35577;BME280;21680;52.400;16.920;2022-07-23T03:31:21;100764.12;;;20.07;63.19
35577;BME280;21680;52.400;16.920;2022-07-23T03:33:47;100765.73;;;20.10;63.21
35577;BME280;21680;52.400;16.920;2022-07-23T03:36:13;100760.04;;;20.13;63.24
35577;BME280;21680;52.400;16.920;2022-07-23T03:38:38;100764.37;;;20.16;63.24
35577;BME280;21680;52.400;16.920;2022-07-23T03:41:04;100757.06;;;20.16;63.20
35577;BME280;21680;52.400;16.920;2022-07-23T03:43:30;100753.48;;;20.16;63.24
35577;BME280;21680;52.400;16.920;2022-07-23T03:45:58;100743.84;;;20.12;63.26
35577;BME280;21680;52.400;16.920;2022-07-23T03:48:26;100745.32;;;20.10;63.31
35577;BME280;21680;52.400;16.920;2022-07-23T03:50:51;100753.86;;;20.11;63.36
35577;BME280;21680;52.400;16.920;2022-07-23T03:53:17;100751.63;;;20.10;63.37
35577;BME280;21680;52.400;16.920;2022-07-23T03:55:43;100750.39;;;20.09;63.40
35577;BME280;21680;52.400;16.920;2022-07-23T03:58:09;100756.33;;;20.08;63.45
35577;BME280;21680;52.400;16.920;2022-07-23T04:00:35;100764.12;;;20.07;63.55
35577;BME280;21680;52.400;16.920;2022-07-23T04:03:01;100763.13;;;20.08;63.56
35577;BME280;21680;52.400;16.920;2022-07-23T04:05:27;100758.19;;;20.08;63.63
35577;BME280;21680;52.400;16.920;2022-07-23T04:07:52;100755.34;;;20.09;63.69
35577;BME280;21680;52.400;16.920;2022-07-23T04:10:18;100755.71;;;20.10;63.69
35577;BME280;21680;52.400;16.920;2022-07-23T04:12:44;100755.22;;;20.11;63.70
35577;BME280;21680;52.400;16.920;2022-07-23T04:15:10;100757.94;;;20.11;63.81
35577;BME280;21680;52.400;16.920;2022-07-23T04:17:36;100754.59;;;20.13;63.79
35577;BME280;21680;52.400;16.920;2022-07-23T04:20:02;100762.14;;;20.15;63.79
35577;BME280;21680;52.400;16.920;2022-07-23T04:22:29;100755.21;;;20.17;63.83
35577;BME280;21680;52.400;16.920;2022-07-23T04:24:55;100754.47;;;20.20;63.86
35577;BME280;21680;52.400;16.920;2022-07-23T04:27:22;100757.31;;;20.24;63.89
35577;BME280;21680;52.400;16.920;2022-07-23T04:29:47;100757.05;;;20.27;63.88
35577;BME280;21680;52.400;16.920;2022-07-23T04:32:13;100761.88;;;20.29;63.89
35577;BME280;21680;52.400;16.920;2022-07-23T04:34:39;100764.35;;;20.32;63.92
35577;BME280;21680;52.400;16.920;2022-07-23T04:37:05;100756.06;;;20.34;63.96
35577;BME280;21680;52.400;16.920;2022-07-23T04:39:31;100755.80;;;20.37;63.98
35577;BME280;21680;52.400;16.920;2022-07-23T04:41:57;100750.27;;;20.38;63.97
35577;BME280;21680;52.400;16.920;2022-07-23T04:44:22;100745.92;;;20.41;64.08
35577;BME280;21680;52.400;16.920;2022-07-23T04:46:50;100743.69;;;20.47;64.06
35577;BME280;21680;52.400;16.920;2022-07-23T04:49:16;100733.16;;;20.53;64.12
35577;BME280;21680;52.400;16.920;2022-07-23T04:51:41;100738.58;;;20.59;64.03
35577;BME280;21680;52.400;16.920;2022-07-23T04:54:07;100729.42;;;20.60;64.05
35577;BME280;21680;52.400;16.920;2022-07-23T04:56:33;100729.16;;;20.63;64.08
35577;BME280;21680;52.400;16.920;2022-07-23T04:58:59;100732.86;;;20.67;64.10
35577;BME280;21680;52.400;16.920;2022-07-23T05:01:25;100730.61;;;20.72;64.14
35577;BME280;21680;52.400;16.920;2022-07-23T05:03:51;100716.61;;;20.77;64.12
35577;BME280;21680;52.400;16.920;2022-07-23T05:06:17;100717.05;;;20.82;64.16
35577;BME280;21680;52.400;16.920;2022-07-23T05:08:43;100701.26;;;20.76;64.22
35577;BME280;21680;52.400;16.920;2022-07-23T05:11:09;100715.14;;;20.94;64.20
35577;BME280;21680;52.400;16.920;2022-07-23T05:13:35;100705.97;;;20.95;64.17
35577;BME280;21680;52.400;16.920;2022-07-23T05:16:01;100710.39;;;21.01;64.15
35577;BME280;21680;52.400;16.920;2022-07-23T05:18:26;100707.91;;;21.04;64.11
35577;BME280;21680;52.400;16.920;2022-07-23T05:20:54;100701.82;;;21.06;64.12
35577;BME280;21680;52.400;16.920;2022-07-23T05:23:21;100696.61;;;21.08;64.12
35577;BME280;21680;52.400;16.920;2022-07-23T05:25:47;100696.34;;;21.12;64.14
35577;BME280;21680;52.400;16.920;2022-07-23T05:28:14;100689.98;;;21.17;64.13
35577;BME280;21680;52.400;16.920;2022-07-23T05:30:39;100695.54;;;21.21;64.05
35577;BME280;21680;52.400;16.920;2022-07-23T05:33:05;100670.95;;;21.11;64.03
35577;BME280;21680;52.400;16.920;2022-07-23T05:35:33;100692.81;;;21.26;64.09
35577;BME280;21680;52.400;16.920;2022-07-23T05:38:00;100691.05;;;21.31;64.02
35577;BME280;21680;52.400;16.920;2022-07-23T05:40:26;100685.69;;;21.35;64.10
35577;BME280;21680;52.400;16.920;2022-07-23T05:42:52;100682.42;;;21.41;64.03
35577;BME280;21680;52.400;16.920;2022-07-23T05:45:18;100676.93;;;21.47;64.06
35577;BME280;21680;52.400;16.920;2022-07-23T05:47:48;100676.75;;;21.54;64.06
35577;BME280;21680;52.400;16.920;2022-07-23T05:50:15;100670.39;;;21.59;64.04
35577;BME280;21680;52.400;16.920;2022-07-23T05:52:42;100670.34;;;21.64;64.00
35577;BME280;21680;52.400;16.920;2022-07-23T05:55:10;100668.38;;;21.76;64.08
35577;BME280;21680;52.400;16.920;2022-07-23T05:57:37;100668.38;;;21.76;64.08
35577;BME280;21680;52.400;16.920;2022-07-23T06:00:05;100664.73;;;21.81;64.06
35577;BME280;21680;52.400;16.920;2022-07-23T06:02:34;100664.41;;;21.90;64.07
35577;BME280;21680;52.400;16.920;2022-07-23T06:04:59;100629.66;;;21.92;63.88
35577;BME280;21680;52.400;16.920;2022-07-23T06:07:25;100629.66;;;21.92;63.88
35577;BME280;21680;52.400;16.920;2022-07-23T06:09:51;100656.67;;;22.10;63.96
35577;BME280;21680;52.400;16.920;2022-07-23T06:12:18;100649.78;;;22.16;63.95
35577;BME280;21680;52.400;16.920;2022-07-23T06:14:44;100646.49;;;22.22;63.92
35577;BME280;21680;52.400;16.920;2022-07-23T06:17:10;100645.43;;;22.28;63.69
35577;BME280;21680;52.400;16.920;2022-07-23T06:19:36;100641.27;;;22.34;63.81
35577;BME280;21680;52.400;16.920;2022-07-23T06:22:03;100643.57;;;22.39;63.79
35577;BME280;21680;52.400;16.920;2022-07-23T06:24:29;100645.73;;;22.45;63.72
35577;BME280;21680;52.400;16.920;2022-07-23T06:26:55;100644.52;;;22.53;63.67
35577;BME280;21680;52.400;16.920;2022-07-23T06:29:21;100649.05;;;22.58;63.55
35577;BME280;21680;52.400;16.920;2022-07-23T06:31:47;100653.14;;;22.67;63.50
35577;BME280;21680;52.400;16.920;2022-07-23T06:34:13;100646.03;;;22.71;63.38
35577;BME280;21680;52.400;16.920;2022-07-23T06:36:40;100638.41;;;22.74;63.29
35577;BME280;21680;52.400;16.920;2022-07-23T06:39:06;100628.41;;;22.79;63.23
35577;BME280;21680;52.400;16.920;2022-07-23T06:41:32;100636.48;;;22.90;63.18
35577;BME280;21680;52.400;16.920;2022-07-23T06:43:57;100641.43;;;23.00;63.08
35577;BME280;21680;52.400;16.920;2022-07-23T06:46:23;100652.34;;;23.10;62.99
35577;BME280;21680;52.400;16.920;2022-07-23T06:48:52;100650.45;;;23.20;62.88
35577;BME280;21680;52.400;16.920;2022-07-23T06:51:17;100647.55;;;23.31;62.77
35577;BME280;21680;52.400;16.920;2022-07-23T06:53:46;100635.03;;;23.42;62.64
35577;BME280;21680;52.400;16.920;2022-07-23T06:56:11;100633.13;;;23.52;62.50
35577;BME280;21680;52.400;16.920;2022-07-23T06:58:37;100633.27;;;23.60;62.32
35577;BME280;21680;52.400;16.920;2022-07-23T07:01:04;100630.99;;;23.70;62.17
35577;BME280;21680;52.400;16.920;2022-07-23T07:03:30;100635.10;;;23.83;62.03
35577;BME280;21680;52.400;16.920;2022-07-23T07:05:56;100634.09;;;23.98;61.87
35577;BME280;21680;52.400;16.920;2022-07-23T07:08:23;100634.47;;;24.17;61.66
35577;BME280;21680;52.400;16.920;2022-07-23T07:10:51;100630.77;;;24.36;61.41
35577;BME280;21680;52.400;16.920;2022-07-23T07:13:17;100627.72;;;24.56;61.26
35577;BME280;21680;52.400;16.920;2022-07-23T07:15:42;100626.38;;;24.78;61.00
35577;BME280;21680;52.400;16.920;2022-07-23T07:18:08;100619.02;;;24.97;60.72
35577;BME280;21680;52.400;16.920;2022-07-23T07:20:34;100622.25;;;25.18;60.47
35577;BME280;21680;52.400;16.920;2022-07-23T07:23:00;100629.89;;;25.32;60.11
35577;BME280;21680;52.400;16.920;2022-07-23T07:25:26;100631.64;;;25.37;59.72
35577;BME280;21680;52.400;16.920;2022-07-23T07:27:52;100631.48;;;25.39;59.46
35577;BME280;21680;52.400;16.920;2022-07-23T07:30:19;100643.50;;;25.42;59.27
35577;BME280;21680;52.400;16.920;2022-07-23T07:32:45;100640.63;;;25.47;58.98
35577;BME280;21680;52.400;16.920;2022-07-23T07:35:11;100643.06;;;25.54;58.66
35577;BME280;21680;52.400;16.920;2022-07-23T07:37:37;100647.06;;;25.64;58.40
35577;BME280;21680;52.400;16.920;2022-07-23T07:40:04;100650.91;;;25.71;58.03
35577;BME280;21680;52.400;16.920;2022-07-23T07:42:30;100646.60;;;25.69;57.45
35577;BME280;21680;52.400;16.920;2022-07-23T07:44:57;100649.63;;;25.62;57.26
35577;BME280;21680;52.400;16.920;2022-07-23T07:47:24;100650.46;;;25.58;56.93
35577;BME280;21680;52.400;16.920;2022-07-23T07:49:50;100651.30;;;25.54;56.82
35577;BME280;21680;52.400;16.920;2022-07-23T07:52:16;100654.77;;;25.61;56.71
35577;BME280;21680;52.400;16.920;2022-07-23T07:54:42;100657.67;;;25.59;56.43
35577;BME280;21680;52.400;16.920;2022-07-23T07:57:08;100662.32;;;25.63;56.35
35577;BME280;21680;52.400;16.920;2022-07-23T07:59:34;100656.38;;;25.67;56.22
35577;BME280;21680;52.400;16.920;2022-07-23T08:02:01;100649.67;;;25.66;56.03
35577;BME280;21680;52.400;16.920;2022-07-23T08:04:30;100654.16;;;25.71;55.85
35577;BME280;21680;52.400;16.920;2022-07-23T08:06:56;100659.66;;;25.71;55.75
35577;BME280;21680;52.400;16.920;2022-07-23T08:09:21;100678.02;;;25.70;55.49
35577;BME280;21680;52.400;16.920;2022-07-23T08:11:48;100687.66;;;25.52;55.18
35577;BME280;21680;52.400;16.920;2022-07-23T08:14:16;100706.20;;;25.33;55.11
35577;BME280;21680;52.400;16.920;2022-07-23T08:16:41;100711.37;;;25.14;54.95
35577;BME280;21680;52.400;16.920;2022-07-23T08:19:07;100723.92;;;24.99;54.71
35577;BME280;21680;52.400;16.920;2022-07-23T08:21:33;100726.64;;;24.81;54.74
35577;BME280;21680;52.400;16.920;2022-07-23T08:23:59;100721.03;;;24.69;54.65
35577;BME280;21680;52.400;16.920;2022-07-23T08:26:25;100720.08;;;24.60;54.75
35577;BME280;21680;52.400;16.920;2022-07-23T08:28:50;100714.87;;;24.53;54.72
35577;BME280;21680;52.400;16.920;2022-07-23T08:31:16;100723.81;;;24.41;54.80
35577;BME280;21680;52.400;16.920;2022-07-23T08:33:43;100726.38;;;24.15;55.20
35577;BME280;21680;52.400;16.920;2022-07-23T08:36:10;100720.52;;;23.87;55.60
35577;BME280;21680;52.400;16.920;2022-07-23T08:38:37;100726.30;;;23.60;56.03
35577;BME280;21680;52.400;16.920;2022-07-23T08:41:04;100725.06;;;23.36;56.71
35577;BME280;21680;52.400;16.920;2022-07-23T08:43:33;100727.61;;;23.04;57.09
35577;BME280;21680;52.400;16.920;2022-07-23T08:46:02;100750.41;;;22.80;57.51
35577;BME280;21680;52.400;16.920;2022-07-23T08:48:31;100751.80;;;22.64;58.12
35577;BME280;21680;52.400;16.920;2022-07-23T08:51:00;100741.91;;;22.48;58.71
35577;BME280;21680;52.400;16.920;2022-07-23T08:53:28;100731.47;;;22.38;59.35
35577;BME280;21680;52.400;16.920;2022-07-23T08:55:57;100728.16;;;22.34;59.96
35577;BME280;21680;52.400;16.920;2022-07-23T08:58:25;100723.19;;;22.34;60.35
35577;BME280;21680;52.400;16.920;2022-07-23T09:00:51;100718.94;;;22.26;60.94
35577;BME280;21680;52.400;16.920;2022-07-23T09:03:22;100736.38;;;22.19;61.27
35577;BME280;21680;52.400;16.920;2022-07-23T09:05:51;100728.56;;;22.05;61.65
35577;BME280;21680;52.400;16.920;2022-07-23T09:08:22;100740.00;;;21.99;62.01
35577;BME280;21680;52.400;16.920;2022-07-23T09:10:57;100734.81;;;21.96;62.35
35577;BME280;21680;52.400;16.920;2022-07-23T09:16:27;100710.25;;;21.96;63.00
35577;BME280;21680;52.400;16.920;2022-07-23T09:18:57;100715.94;;;21.98;63.27
35577;BME280;21680;52.400;16.920;2022-07-23T09:21:33;100726.22;;;22.00;63.77
35577;BME280;21680;52.400;16.920;2022-07-23T09:24:06;100738.00;;;21.86;64.19
35577;BME280;21680;52.400;16.920;2022-07-23T09:26:43;100737.87;;;21.87;64.53
35577;BME280;21680;52.400;16.920;2022-07-23T09:29:26;100713.49;;;21.80;64.71
35577;BME280;21680;52.400;16.920;2022-07-23T09:31:59;100747.10;;;21.96;65.03
35577;BME280;21680;52.400;16.920;2022-07-23T09:34:29;100751.33;;;21.94;65.32
35577;BME280;21680;52.400;16.920;2022-07-23T09:36:59;100757.11;;;21.86;65.43
35577;BME280;21680;52.400;16.920;2022-07-23T09:39:35;100763.84;;;21.82;66.18
35577;BME280;21680;52.400;16.920;2022-07-23T09:42:19;100754.64;;;21.67;66.36
35577;BME280;21680;52.400;16.920;2022-07-23T09:44:49;100758.73;;;21.67;67.01
35577;BME280;21680;52.400;16.920;2022-07-23T09:47:16;100762.20;;;21.49;67.42
35577;BME280;21680;52.400;16.920;2022-07-23T09:52:45;100754.12;;;21.32;68.16
35577;BME280;21680;52.400;16.920;2022-07-23T09:55:11;100736.96;;;21.15;69.14
35577;BME280;21680;52.400;16.920;2022-07-23T09:57:40;100727.92;;;21.14;69.33
35577;BME280;21680;52.400;16.920;2022-07-23T10:00:09;100733.37;;;21.14;70.25
35577;BME280;21680;52.400;16.920;2022-07-23T10:02:39;100747.97;;;20.92;71.16
35577;BME280;21680;52.400;16.920;2022-07-23T10:05:06;100724.70;;;20.88;71.00
35577;BME280;21680;52.400;16.920;2022-07-23T10:07:36;100717.84;;;20.99;71.08
35577;BME280;21680;52.400;16.920;2022-07-23T10:10:06;100722.29;;;21.00;71.00
35577;BME280;21680;52.400;16.920;2022-07-23T10:12:32;100727.50;;;20.98;70.74
35577;BME280;21680;52.400;16.920;2022-07-23T10:14:59;100727.50;;;20.98;70.74
35577;BME280;21680;52.400;16.920;2022-07-23T10:17:27;100732.35;;;20.94;71.49
35577;BME280;21680;52.400;16.920;2022-07-23T10:19:54;100741.52;;;20.93;71.86
35577;BME280;21680;52.400;16.920;2022-07-23T10:22:22;100734.00;;;20.86;71.84
35577;BME280;21680;52.400;16.920;2022-07-23T10:27:39;100724.94;;;20.91;71.99
35577;BME280;21680;52.400;16.920;2022-07-23T10:33:27;100730.98;;;20.94;72.25
35577;BME280;21680;52.400;16.920;2022-07-23T10:36:11;100722.13;;;21.07;71.80
35577;BME280;21680;52.400;16.920;2022-07-23T10:38:56;100722.13;;;21.07;71.80
35577;BME280;21680;52.400;16.920;2022-07-23T10:41:36;100705.48;;;21.16;72.05
35577;BME280;21680;52.400;16.920;2022-07-23T10:44:15;100719.56;;;21.00;72.46
35577;BME280;21680;52.400;16.920;2022-07-23T10:49:44;100699.66;;;20.94;72.00
35577;BME280;21680;52.400;16.920;2022-07-23T10:52:17;100699.66;;;20.94;72.00
35577;BME280;21680;52.400;16.920;2022-07-23T10:54:49;100718.17;;;21.06;72.00
35577;BME280;21680;52.400;16.920;2022-07-23T10:57:25;100711.52;;;20.99;71.88
35577;BME280;21680;52.400;16.920;2022-07-23T11:02:38;100712.22;;;21.06;71.87
35577;BME280;21680;52.400;16.920;2022-07-23T11:05:15;100704.98;;;21.22;71.54
35577;BME280;21680;52.400;16.920;2022-07-23T11:13:37;100690.28;;;21.34;71.10
35577;BME280;21680;52.400;16.920;2022-07-23T11:16:14;100678.24;;;21.37;71.17
35577;BME280;21680;52.400;16.920;2022-07-23T11:21:40;100693.39;;;21.66;70.92
35577;BME280;21680;52.400;16.920;2022-07-23T11:26:45;100697.97;;;21.96;70.75
35577;BME280;21680;52.400;16.920;2022-07-23T11:32:04;100710.39;;;21.94;70.15
35577;BME280;21680;52.400;16.920;2022-07-23T11:34:39;100715.71;;;21.96;70.31
35577;BME280;21680;52.400;16.920;2022-07-23T11:37:11;100716.28;;;22.05;70.25
35577;BME280;21680;52.400;16.920;2022-07-23T11:39:39;100721.22;;;22.21;70.19
35577;BME280;21680;52.400;16.920;2022-07-23T11:42:06;100725.84;;;22.30;69.92
35577;BME280;21680;52.400;16.920;2022-07-23T11:44:35;100719.16;;;22.28;69.80
35577;BME280;21680;52.400;16.920;2022-07-23T11:47:05;100710.80;;;22.20;69.82
35577;BME280;21680;52.400;16.920;2022-07-23T11:49:32;100719.72;;;22.22;69.74
35577;BME280;21680;52.400;16.920;2022-07-23T11:52:13;100716.56;;;22.27;69.65
35577;BME280;21680;52.400;16.920;2022-07-23T11:57:28;100711.00;;;22.48;69.60
35577;BME280;21680;52.400;16.920;2022-07-23T12:00:02;100707.87;;;22.72;69.68
35577;BME280;21680;52.400;16.920;2022-07-23T12:02:31;100714.87;;;22.80;69.07
35577;BME280;21680;52.400;16.920;2022-07-23T12:04:59;100719.80;;;22.61;68.95
35577;BME280;21680;52.400;16.920;2022-07-23T12:07:33;100721.37;;;22.54;68.93
35577;BME280;21680;52.400;16.920;2022-07-23T12:12:53;100718.70;;;22.48;68.84
35577;BME280;21680;52.400;16.920;2022-07-23T12:15:23;100725.66;;;22.47;68.77
35577;BME280;21680;52.400;16.920;2022-07-23T12:18:02;100729.83;;;22.41;68.75
35577;BME280;21680;52.400;16.920;2022-07-23T12:20:33;100731.11;;;22.37;68.73
35577;BME280;21680;52.400;16.920;2022-07-23T12:23:04;100717.23;;;22.34;68.81
35577;BME280;21680;52.400;16.920;2022-07-23T12:25:33;100717.70;;;22.59;68.87
35577;BME280;21680;52.400;16.920;2022-07-23T12:28:12;100715.09;;;22.82;68.72
35577;BME280;21680;52.400;16.920;2022-07-23T12:30:43;100706.11;;;22.95;68.34
35577;BME280;21680;52.400;16.920;2022-07-23T12:33:35;100694.30;;;23.05;68.15
35577;BME280;21680;52.400;16.920;2022-07-23T12:36:07;100679.51;;;23.30;68.21
35577;BME280;21680;52.400;16.920;2022-07-23T12:38:44;100665.39;;;23.58;67.58
35577;BME280;21680;52.400;16.920;2022-07-23T12:41:09;100659.22;;;23.70;67.29
35577;BME280;21680;52.400;16.920;2022-07-23T12:43:40;100668.56;;;23.91;67.00
35577;BME280;21680;52.400;16.920;2022-07-23T12:48:52;100673.52;;;24.46;66.55
35577;BME280;21680;52.400;16.920;2022-07-23T12:51:25;100674.47;;;24.55;65.97
35577;BME280;21680;52.400;16.920;2022-07-23T12:54:05;100679.00;;;24.46;65.17
35577;BME280;21680;52.400;16.920;2022-07-23T12:56:35;100674.34;;;24.43;64.85
35577;BME280;21680;52.400;16.920;2022-07-23T12:59:07;100674.63;;;24.53;64.67
35577;BME280;21680;52.400;16.920;2022-07-23T13:01:40;100674.44;;;24.69;64.44
35577;BME280;21680;52.400;16.920;2022-07-23T13:04:19;100684.61;;;24.76;63.12
35577;BME280;21680;52.400;16.920;2022-07-23T13:06:52;100685.34;;;24.47;62.33
35577;BME280;21680;52.400;16.920;2022-07-23T13:09:22;100685.05;;;24.36;62.07
35577;BME280;21680;52.400;16.920;2022-07-23T13:11:54;100688.98;;;24.24;62.02
35577;BME280;21680;52.400;16.920;2022-07-23T13:14:22;100690.47;;;24.18;62.10
35577;BME280;21680;52.400;16.920;2022-07-23T13:16:50;100692.55;;;24.07;61.88
35577;BME280;21680;52.400;16.920;2022-07-23T13:19:17;100695.13;;;24.08;61.99
35577;BME280;21680;52.400;16.920;2022-07-23T13:21:43;100700.46;;;24.10;62.18
35577;BME280;21680;52.400;16.920;2022-07-23T13:24:10;100715.47;;;24.19;62.28
35577;BME280;21680;52.400;16.920;2022-07-23T13:26:38;100697.41;;;24.13;62.03